createdAt,value
2023-05-08T12:01:37.926Z,18.38
2023-05-08T12:02:36.531Z,17.97
2023-05-08T12:03:36.560Z,17.70
2023-05-08T12:04:36.486Z,17.55
2023-05-08T12:05:36.376Z,17.45
2023-05-08T12:06:36.361Z,17.39
2023-05-08T12:07:36.372Z,17.35
2023-05-08T12:08:36.363Z,17.34
2023-05-08T12:09:36.333Z,17.34
2023-05-08T12:10:36.328Z,17.34
2023-05-08T12:11:36.404Z,17.33
2023-05-08T12:12:36.295Z,17.32
2023-05-08T12:13:36.373Z,17.32
2023-05-08T12:14:36.300Z,17.31
2023-05-08T12:15:36.273Z,17.31
2023-05-08T12:16:36.296Z,17.33
2023-05-08T12:17:36.297Z,17.36
2023-05-08T12:18:37.413Z,17.38
2023-05-08T12:19:36.226Z,17.40
2023-05-08T12:20:36.217Z,17.40
2023-05-08T12:21:36.237Z,17.40
2023-05-08T12:22:36.212Z,17.39
2023-05-08T12:23:36.208Z,17.39
2023-05-08T12:24:36.178Z,17.39
2023-05-08T12:25:36.162Z,17.40
2023-05-08T12:26:36.178Z,17.42
2023-05-08T12:27:36.149Z,17.42
2023-05-08T12:28:36.159Z,17.42
2023-05-08T12:29:36.129Z,17.43
2023-05-08T12:30:36.106Z,17.46
2023-05-08T12:31:36.194Z,17.48
2023-05-08T12:32:36.131Z,17.49
2023-05-08T12:33:36.088Z,17.49
2023-05-08T12:34:36.068Z,17.49
2023-05-08T12:35:36.122Z,17.50
2023-05-08T12:36:36.076Z,17.52
2023-05-08T12:37:36.037Z,17.54
2023-05-08T12:38:36.062Z,17.57
2023-05-08T12:39:36.009Z,17.60
2023-05-08T12:40:36.054Z,17.64
2023-05-08T12:41:36.009Z,17.67
2023-05-08T12:42:35.988Z,17.70
2023-05-08T12:43:35.993Z,17.70
2023-05-08T12:44:35.988Z,17.69
2023-05-08T12:45:35.966Z,17.67
2023-05-08T12:46:35.956Z,17.66
2023-05-08T12:47:36.006Z,17.65
2023-05-08T12:48:35.931Z,17.63
2023-05-08T12:49:35.909Z,17.61
2023-05-08T12:50:35.908Z,17.59
2023-05-08T12:51:35.897Z,17.57
2023-05-08T12:52:35.914Z,17.54
2023-05-08T12:53:35.892Z,17.53
2023-05-08T12:54:35.849Z,17.52
2023-05-08T12:55:35.845Z,17.52
2023-05-08T12:56:35.852Z,17.54
2023-05-08T12:57:35.836Z,17.54
2023-05-08T12:58:35.812Z,17.55
2023-05-08T12:59:35.822Z,17.55
2023-05-08T13:00:35.805Z,17.55
2023-05-08T13:01:35.845Z,17.55
2023-05-08T13:02:39.483Z,17.56
2023-05-08T13:03:36.815Z,17.60
2023-05-08T13:04:35.797Z,17.65
2023-05-08T13:05:35.744Z,17.68
2023-05-08T13:06:35.814Z,17.70
2023-05-08T13:07:35.710Z,17.69
2023-05-08T13:08:35.700Z,17.68
2023-05-08T13:09:35.700Z,17.67
2023-05-08T13:10:35.686Z,17.67
2023-05-08T13:11:35.710Z,17.69
2023-05-08T13:12:35.660Z,17.73
2023-05-08T13:13:35.655Z,17.78
2023-05-08T13:14:35.644Z,17.81
2023-05-08T13:15:35.632Z,17.82
2023-05-08T13:16:36.154Z,17.84
2023-05-08T13:17:35.627Z,17.86
2023-05-08T13:18:35.601Z,17.87
2023-05-08T13:19:35.598Z,17.86
2023-05-08T13:20:35.591Z,17.84
2023-05-08T13:21:35.609Z,17.81
2023-05-08T13:22:35.564Z,17.78
2023-05-08T13:23:35.566Z,17.76
2023-05-08T13:24:35.523Z,17.75
2023-05-08T13:25:35.536Z,17.75
2023-05-08T13:26:35.506Z,17.73
2023-05-08T13:27:35.536Z,17.73
2023-05-08T13:28:35.481Z,17.74
2023-05-08T13:29:35.472Z,17.76
2023-05-08T13:30:35.470Z,17.76
2023-05-08T13:31:35.559Z,17.75
2023-05-08T13:32:35.475Z,17.72
2023-05-08T13:33:35.430Z,17.68
2023-05-08T13:34:39.363Z,17.66
2023-05-08T13:35:36.432Z,17.66
2023-05-08T13:36:35.434Z,17.68
2023-05-08T13:37:35.392Z,17.71
2023-05-08T13:38:35.390Z,17.74
2023-05-08T13:39:35.384Z,17.75
2023-05-08T13:40:35.365Z,17.77
2023-05-08T13:41:35.372Z,17.81
2023-05-08T13:42:35.343Z,17.84
2023-05-08T13:43:35.355Z,17.87
2023-05-08T13:44:35.321Z,17.89
2023-05-08T13:45:35.338Z,17.88
2023-05-08T13:46:35.336Z,17.87
2023-05-08T13:47:35.312Z,17.85
2023-05-08T13:48:35.269Z,17.82
2023-05-08T13:49:35.276Z,17.80
2023-05-08T13:50:35.267Z,17.77
2023-05-08T13:51:35.247Z,17.73
2023-05-08T13:52:35.252Z,17.71
2023-05-08T13:53:35.263Z,17.71
2023-05-08T13:54:35.213Z,17.72
2023-05-08T13:55:35.200Z,17.73
2023-05-08T13:56:35.218Z,17.75
2023-05-08T13:57:35.210Z,17.76
2023-05-08T13:58:35.201Z,17.75
2023-05-08T13:59:35.153Z,17.75
2023-05-08T14:00:35.142Z,17.74
2023-05-08T14:01:35.159Z,17.72
2023-05-08T14:02:35.209Z,17.71
2023-05-08T14:03:35.181Z,17.70
2023-05-08T14:04:35.121Z,17.69
2023-05-08T14:05:35.104Z,17.69
2023-05-08T14:06:35.089Z,17.69
2023-05-08T14:07:35.089Z,17.68
2023-05-08T14:08:35.287Z,17.67
2023-05-08T14:09:36.049Z,17.65
2023-05-08T14:10:35.041Z,17.62
2023-05-08T14:11:35.029Z,17.60
2023-05-08T14:12:35.028Z,17.60
2023-05-08T14:13:35.085Z,17.59
2023-05-08T14:14:35.006Z,17.59
2023-05-08T14:15:37.367Z,17.58
2023-05-08T14:16:35.033Z,17.58
2023-05-08T14:17:35.054Z,17.58
2023-05-08T14:18:34.963Z,17.58
2023-05-08T14:19:34.937Z,17.58
2023-05-08T14:20:34.931Z,17.56
2023-05-08T14:21:34.966Z,17.52
2023-05-08T14:22:34.905Z,17.49
2023-05-08T14:23:34.930Z,17.45
2023-05-08T14:24:34.892Z,17.43
2023-05-08T14:25:34.893Z,17.42
2023-05-08T14:26:34.878Z,17.43
2023-05-08T14:27:34.861Z,17.44
2023-05-08T14:28:34.868Z,17.46
2023-05-08T14:29:34.891Z,17.49
2023-05-08T14:30:34.830Z,17.52
2023-05-08T14:31:34.870Z,17.56
2023-05-08T14:32:34.888Z,17.59
2023-05-08T14:33:34.846Z,17.61
2023-05-08T14:34:34.783Z,17.62
2023-05-08T14:35:34.791Z,17.63
2023-05-08T14:36:34.764Z,17.62
2023-05-08T14:37:34.820Z,17.59
2023-05-08T14:38:34.754Z,17.56
2023-05-08T14:39:34.734Z,17.54
2023-05-08T14:40:34.700Z,17.53
2023-05-08T14:41:34.739Z,17.53
2023-05-08T14:42:34.694Z,17.55
2023-05-08T14:43:34.713Z,17.56
2023-05-08T14:44:34.744Z,17.56
2023-05-08T14:45:34.670Z,17.56
2023-05-08T14:46:34.711Z,17.58
2023-05-08T14:47:34.661Z,17.62
2023-05-08T14:48:34.645Z,17.66
2023-05-08T14:49:38.602Z,17.68
2023-05-08T14:50:34.630Z,17.69
2023-05-08T14:51:34.597Z,17.70
2023-05-08T14:52:34.656Z,17.70
2023-05-08T14:53:34.703Z,17.69
2023-05-08T14:54:34.812Z,17.70
2023-05-08T14:55:34.868Z,17.73
2023-05-08T14:56:46.345Z,17.78
2023-05-08T14:57:35.568Z,17.83
2023-05-08T14:58:34.584Z,17.86
2023-05-08T14:59:34.517Z,17.88
2023-05-08T15:00:34.570Z,17.87
2023-05-08T15:01:34.553Z,17.85
2023-05-08T15:02:34.612Z,17.83
2023-05-08T15:03:34.609Z,17.80
2023-05-08T15:04:34.492Z,17.78
2023-05-08T15:05:34.453Z,17.78
2023-05-08T15:06:34.437Z,17.77
2023-05-08T15:07:34.447Z,17.78
2023-05-08T15:08:34.468Z,17.78
2023-05-08T15:09:34.405Z,17.79
2023-05-08T15:10:34.428Z,17.80
2023-05-08T15:11:34.401Z,17.81
2023-05-08T15:12:34.380Z,17.81
2023-05-08T15:13:34.451Z,17.81
2023-05-08T15:14:34.378Z,17.81
2023-05-08T15:15:34.350Z,17.81
2023-05-08T15:16:34.378Z,17.79
2023-05-08T15:17:34.344Z,17.77
2023-05-08T15:18:34.334Z,17.74
2023-05-08T15:19:34.349Z,17.71
2023-05-08T15:20:35.295Z,17.67
2023-05-08T15:21:35.197Z,17.63
2023-05-08T15:22:35.438Z,17.61
2023-05-08T15:23:35.532Z,17.59
2023-05-08T15:24:35.446Z,17.59
2023-05-08T15:25:35.288Z,17.60
2023-05-08T15:26:34.350Z,17.62
2023-05-08T15:27:35.561Z,17.64
2023-05-08T15:28:34.214Z,17.66
2023-05-08T15:29:34.215Z,17.68
2023-05-08T15:30:34.198Z,17.69
2023-05-08T15:31:34.209Z,17.69
2023-05-08T15:32:34.177Z,17.69
2023-05-08T15:33:34.171Z,17.68
2023-05-08T15:34:34.164Z,17.67
2023-05-08T15:35:34.125Z,17.67
2023-05-08T15:36:34.133Z,17.68
2023-05-08T15:37:34.115Z,17.69
2023-05-08T15:38:34.131Z,17.70
2023-05-08T15:39:34.099Z,17.70
2023-05-08T15:40:34.111Z,17.69
2023-05-08T15:41:34.067Z,17.68
2023-05-08T15:42:34.053Z,17.67
2023-05-08T15:43:34.040Z,17.66
2023-05-08T15:44:53.220Z,17.65
2023-05-08T15:45:35.075Z,17.65
2023-05-08T15:46:34.025Z,17.66
2023-05-08T15:47:34.095Z,17.65
2023-05-08T15:48:34.005Z,17.64
2023-05-08T15:49:34.019Z,17.63
2023-05-08T15:50:33.983Z,17.63
2023-05-08T15:51:33.976Z,17.63
2023-05-08T15:52:33.952Z,17.64
2023-05-08T15:53:33.937Z,17.64
2023-05-08T15:54:33.946Z,17.63
2023-05-08T15:55:33.939Z,17.61
2023-05-08T15:56:33.911Z,17.59
2023-05-08T15:57:33.916Z,17.58
2023-05-08T15:58:33.877Z,17.59
2023-05-08T15:59:33.904Z,17.60
2023-05-08T16:00:44.166Z,17.59
2023-05-08T16:01:34.907Z,17.57
2023-05-08T16:02:33.900Z,17.55
2023-05-08T16:03:33.988Z,17.53
2023-05-08T16:04:33.836Z,17.52
2023-05-08T16:05:33.807Z,17.53
2023-05-08T16:06:33.790Z,17.56
2023-05-08T16:07:33.792Z,17.59
2023-05-08T16:08:33.780Z,17.64
2023-05-08T16:09:33.785Z,17.68
2023-05-08T16:10:33.763Z,17.73
2023-05-08T16:11:33.743Z,17.76
2023-05-08T16:12:33.734Z,17.80
2023-05-08T16:13:33.731Z,17.83
2023-05-08T16:14:33.725Z,17.86
2023-05-08T16:15:33.715Z,17.87
2023-05-08T16:16:33.776Z,17.87
2023-05-08T16:17:33.693Z,17.87
2023-05-08T16:18:33.679Z,17.88
2023-05-08T16:19:34.688Z,17.90
2023-05-08T16:20:35.720Z,17.90
2023-05-08T16:21:33.723Z,17.90
2023-05-08T16:22:33.701Z,17.90
2023-05-08T16:23:33.650Z,17.90
2023-05-08T16:24:33.642Z,17.89
2023-05-08T16:25:33.649Z,17.88
2023-05-08T16:26:33.585Z,17.86
2023-05-08T16:27:33.575Z,17.84
2023-05-08T16:28:33.571Z,17.81
2023-05-08T16:29:33.571Z,17.78
2023-05-08T16:30:33.584Z,17.76
2023-05-08T16:31:33.663Z,17.72
2023-05-08T16:32:33.535Z,17.68
2023-05-08T16:33:33.522Z,17.64
2023-05-08T16:34:33.521Z,17.60
2023-05-08T16:35:33.550Z,17.57
2023-05-08T16:36:33.505Z,17.54
2023-05-08T16:37:33.764Z,17.51
2023-05-08T16:38:33.455Z,17.49
2023-05-08T16:39:33.448Z,17.47
2023-05-08T16:40:33.466Z,17.46
2023-05-08T16:41:33.445Z,17.46
2023-05-08T16:42:33.408Z,17.46
2023-05-08T16:43:33.422Z,17.47
2023-05-08T16:44:33.402Z,17.49
2023-05-08T16:45:33.389Z,17.53
2023-05-08T16:46:33.415Z,17.57
2023-05-08T16:47:33.434Z,17.60
2023-05-08T16:48:33.353Z,17.62
2023-05-08T16:49:33.344Z,17.64
2023-05-08T16:50:33.343Z,17.66
2023-05-08T16:51:33.340Z,17.69
2023-05-08T16:52:33.315Z,17.70
2023-05-08T16:53:33.296Z,17.71
2023-05-08T16:54:33.290Z,17.71
2023-05-08T16:55:33.267Z,17.71
2023-05-08T16:56:33.292Z,17.72
2023-05-08T16:57:33.254Z,17.73
2023-05-08T16:58:33.263Z,17.73
2023-05-08T16:59:33.240Z,17.73
2023-05-08T17:00:33.249Z,17.72
2023-05-08T17:01:33.249Z,17.72
2023-05-08T17:02:33.336Z,17.71
2023-05-08T17:03:33.337Z,17.70
2023-05-08T17:04:33.184Z,17.68
2023-05-08T17:05:33.173Z,17.66
2023-05-08T17:06:33.185Z,17.64
2023-05-08T17:07:33.160Z,17.63
2023-05-08T17:08:33.224Z,17.62
2023-05-08T17:09:34.470Z,17.62
2023-05-08T17:10:33.122Z,17.61
2023-05-08T17:11:33.129Z,17.60
2023-05-08T17:12:33.095Z,17.59
2023-05-08T17:13:33.127Z,17.57
2023-05-08T17:14:33.087Z,17.56
2023-05-08T17:15:33.053Z,17.54
2023-05-08T17:16:33.130Z,17.52
2023-05-08T17:17:33.088Z,17.51
2023-05-08T17:18:33.028Z,17.49
2023-05-08T17:19:33.014Z,17.48
2023-05-08T17:20:33.004Z,17.47
2023-05-08T17:21:33.021Z,17.46
2023-05-08T17:22:32.980Z,17.45
2023-05-08T17:23:32.976Z,17.43
2023-05-08T17:24:32.985Z,17.42
2023-05-08T17:25:32.951Z,17.40
2023-05-08T17:26:32.970Z,17.40
2023-05-08T17:27:32.934Z,17.38
2023-05-08T17:28:32.918Z,17.37
2023-05-08T17:29:33.064Z,17.36
2023-05-08T17:30:32.894Z,17.35
2023-05-08T17:31:34.131Z,17.33
2023-05-08T17:32:32.919Z,17.32
2023-05-08T17:33:34.693Z,17.31
2023-05-08T17:34:35.023Z,17.30
2023-05-08T17:35:34.074Z,17.28
2023-05-08T17:36:32.874Z,17.27
2023-05-08T17:37:32.862Z,17.26
2023-05-08T17:38:32.809Z,17.25
2023-05-08T17:39:32.835Z,17.24
2023-05-08T17:40:32.869Z,17.24
2023-05-08T17:41:32.821Z,17.23
2023-05-08T17:42:32.801Z,17.23
2023-05-08T17:43:32.893Z,17.21
2023-05-08T17:44:32.894Z,17.20
2023-05-08T17:45:32.800Z,17.18
2023-05-08T17:46:32.730Z,17.16
2023-05-08T17:47:32.786Z,17.14
2023-05-08T17:48:32.697Z,17.12
2023-05-08T17:49:32.706Z,17.11
2023-05-08T17:50:32.720Z,17.10
2023-05-08T17:51:32.671Z,17.09
2023-05-08T17:52:32.668Z,17.08
2023-05-08T17:53:32.727Z,17.07
2023-05-08T17:54:32.646Z,17.05
2023-05-08T17:55:32.626Z,17.04
2023-05-08T17:56:32.641Z,17.02
2023-05-08T17:57:32.639Z,17.01
2023-05-08T17:58:32.598Z,17.00
2023-05-08T17:59:32.625Z,16.99
2023-05-08T18:00:32.589Z,16.98
2023-05-08T18:01:32.613Z,16.97
2023-05-08T18:02:32.669Z,16.96
2023-05-08T18:03:32.558Z,16.95
2023-05-08T18:04:32.533Z,16.94
2023-05-08T18:05:32.564Z,16.93
2023-05-08T18:06:32.534Z,16.92
2023-05-08T18:07:32.501Z,16.90
2023-05-08T18:08:32.526Z,16.89
2023-05-08T18:09:35.057Z,16.88
2023-05-08T18:10:32.480Z,16.86
2023-05-08T18:11:32.466Z,16.85
2023-05-08T18:12:32.510Z,16.84
2023-05-08T18:13:32.445Z,16.83
2023-05-08T18:14:32.435Z,16.81
2023-05-08T18:15:32.408Z,16.80
2023-05-08T18:16:32.469Z,16.79
2023-05-08T18:17:32.454Z,16.77
2023-05-08T18:18:32.375Z,16.76
2023-05-08T18:19:32.401Z,16.75
2023-05-08T18:20:32.895Z,16.74
2023-05-08T18:21:32.345Z,16.72
2023-05-08T18:22:32.393Z,16.70
2023-05-08T18:23:32.324Z,16.69
2023-05-08T18:24:32.315Z,16.67
2023-05-08T18:25:32.309Z,16.66
2023-05-08T18:26:32.366Z,16.65
2023-05-08T18:27:32.317Z,16.64
2023-05-08T18:28:32.339Z,16.63
2023-05-08T18:29:32.294Z,16.61
2023-05-08T18:30:32.266Z,16.60
2023-05-08T18:31:32.352Z,16.59
2023-05-08T18:32:32.279Z,16.58
2023-05-08T18:33:32.317Z,16.57
2023-05-08T18:34:32.253Z,16.56
2023-05-08T18:35:32.215Z,16.54
2023-05-08T18:36:32.187Z,16.53
2023-05-08T18:37:32.209Z,16.51
2023-05-08T18:38:32.218Z,16.50
2023-05-08T18:39:32.163Z,16.48
2023-05-08T18:40:32.175Z,16.47
2023-05-08T18:41:32.225Z,16.46
2023-05-08T18:42:32.138Z,16.45
2023-05-08T18:43:32.134Z,16.44
2023-05-08T18:44:32.159Z,16.43
2023-05-08T18:45:32.092Z,16.42
2023-05-08T18:46:32.148Z,16.41
2023-05-08T18:47:32.158Z,16.39
2023-05-08T18:48:32.069Z,16.38
2023-05-08T18:49:32.059Z,16.36
2023-05-08T18:50:32.068Z,16.33
2023-05-08T18:51:32.040Z,16.31
2023-05-08T18:52:32.051Z,16.29
2023-05-08T18:53:33.056Z,16.28
2023-05-08T18:54:32.084Z,16.26
2023-05-08T18:55:32.014Z,16.25
2023-05-08T18:56:31.981Z,16.24
2023-05-08T18:57:31.988Z,16.22
2023-05-08T18:58:31.971Z,16.21
2023-05-08T18:59:31.950Z,16.19
2023-05-08T19:00:32.016Z,16.16
2023-05-08T19:01:31.921Z,16.13
2023-05-08T19:02:31.997Z,16.11
2023-05-08T19:03:32.030Z,16.10
2023-05-08T19:04:31.903Z,16.08
2023-05-08T19:05:31.884Z,16.06
2023-05-08T19:06:31.895Z,16.04
2023-05-08T19:07:31.961Z,16.02
2023-05-08T19:08:31.886Z,16.00
2023-05-08T19:09:31.918Z,15.99
2023-05-08T19:10:31.825Z,15.98
2023-05-08T19:11:31.824Z,15.97
2023-05-08T19:12:31.810Z,15.95
2023-05-08T19:13:31.857Z,15.93
2023-05-08T19:14:31.786Z,15.92
2023-05-08T19:15:31.776Z,15.90
2023-05-08T19:16:31.847Z,15.89
2023-05-08T19:17:31.761Z,15.87
2023-05-08T19:18:31.745Z,15.86
2023-05-08T19:19:31.771Z,15.86
2023-05-08T19:20:31.720Z,15.85
2023-05-08T19:21:31.739Z,15.84
2023-05-08T19:22:32.837Z,15.83
2023-05-08T19:23:31.708Z,15.82
2023-05-08T19:24:31.681Z,15.82
2023-05-08T19:25:31.697Z,15.82
2023-05-08T19:26:31.654Z,15.81
2023-05-08T19:27:31.637Z,15.81
2023-05-08T19:28:31.658Z,15.80
2023-05-08T19:29:33.617Z,15.79
2023-05-08T19:30:31.613Z,15.77
2023-05-08T19:31:31.698Z,15.76
2023-05-08T19:32:31.584Z,15.74
2023-05-08T19:33:31.585Z,15.72
2023-05-08T19:34:31.631Z,15.70
2023-05-08T19:35:31.608Z,15.68
2023-05-08T19:36:31.552Z,15.66
2023-05-08T19:37:31.533Z,15.64
2023-05-08T19:38:31.538Z,15.62
2023-05-08T19:39:31.544Z,15.61
2023-05-08T19:40:31.856Z,15.59
2023-05-08T19:41:31.529Z,15.57
2023-05-08T19:42:31.497Z,15.54
2023-05-08T19:43:31.480Z,15.51
2023-05-08T19:44:31.490Z,15.47
2023-05-08T19:45:31.474Z,15.44
2023-05-08T19:46:31.467Z,15.42
2023-05-08T19:47:31.441Z,15.40
2023-05-08T19:48:31.434Z,15.38
2023-05-08T19:49:31.439Z,15.37
2023-05-08T19:50:31.394Z,15.36
2023-05-08T19:51:31.402Z,15.34
2023-05-08T19:52:31.370Z,15.33
2023-05-08T19:53:31.377Z,15.33
2023-05-08T19:54:31.388Z,15.31
2023-05-08T19:55:31.366Z,15.30
2023-05-08T19:56:31.339Z,15.29
2023-05-08T19:57:31.330Z,15.27
2023-05-08T19:58:31.329Z,15.25
2023-05-08T19:59:31.330Z,15.23
2023-05-08T20:00:31.310Z,15.22
2023-05-08T20:01:31.364Z,15.20
2023-05-08T20:02:31.320Z,15.18
2023-05-08T20:03:31.380Z,15.17
2023-05-08T20:04:32.358Z,15.15
2023-05-08T20:05:31.295Z,15.14
2023-05-08T20:06:31.221Z,15.13
2023-05-08T20:07:31.239Z,15.12
2023-05-08T20:08:31.202Z,15.12
2023-05-08T20:09:31.185Z,15.11
2023-05-08T20:10:31.246Z,15.10
2023-05-08T20:11:31.197Z,15.09
2023-05-08T20:12:31.203Z,15.08
2023-05-08T20:13:31.147Z,15.07
2023-05-08T20:14:31.171Z,15.05
2023-05-08T20:15:31.138Z,15.04
2023-05-08T20:16:31.153Z,15.03
2023-05-08T20:17:31.158Z,15.01
2023-05-08T20:18:31.234Z,15.00
2023-05-08T20:19:31.101Z,14.98
2023-05-08T20:20:31.077Z,14.96
2023-05-08T20:21:31.085Z,14.95
2023-05-08T20:22:31.112Z,14.92
2023-05-08T20:23:31.046Z,14.88
2023-05-08T20:24:31.092Z,14.85
2023-05-08T20:25:31.044Z,14.81
2023-05-08T20:26:31.013Z,14.78
2023-05-08T20:27:31.034Z,14.76
2023-05-08T20:28:31.020Z,14.74
2023-05-08T20:29:30.989Z,14.71
2023-05-08T20:30:30.993Z,14.69
2023-05-08T20:31:31.018Z,14.68
2023-05-08T20:32:31.019Z,14.66
2023-05-08T20:33:30.921Z,14.64
2023-05-08T20:34:30.930Z,14.62
2023-05-08T20:35:30.994Z,14.60
2023-05-08T20:36:30.904Z,14.57
2023-05-08T20:37:30.880Z,14.55
2023-05-08T20:38:30.881Z,14.53
2023-05-08T20:39:30.857Z,14.52
2023-05-08T20:40:30.877Z,14.51
2023-05-08T20:41:30.904Z,14.50
2023-05-08T20:42:30.832Z,14.49
2023-05-08T20:43:30.813Z,14.48
2023-05-08T20:44:30.830Z,14.47
2023-05-08T20:45:30.871Z,14.47
2023-05-08T20:46:30.787Z,14.46
2023-05-08T20:47:30.832Z,14.45
2023-05-08T20:48:30.775Z,14.44
2023-05-08T20:49:30.758Z,14.42
2023-05-08T20:50:30.782Z,14.41
2023-05-08T20:51:30.744Z,14.39
2023-05-08T20:52:30.735Z,14.37
2023-05-08T20:53:30.727Z,14.35
2023-05-08T20:54:30.701Z,14.32
2023-05-08T20:55:30.720Z,14.27
2023-05-08T20:56:30.694Z,14.23
2023-05-08T20:57:30.675Z,14.20
2023-05-08T20:58:30.652Z,14.16
2023-05-08T20:59:30.632Z,14.11
2023-05-08T21:00:30.674Z,14.06
2023-05-08T21:01:30.680Z,14.02
2023-05-08T21:02:30.661Z,13.99
2023-05-08T21:03:30.645Z,13.96
2023-05-08T21:04:30.620Z,13.94
2023-05-08T21:05:30.576Z,13.92
2023-05-08T21:06:30.604Z,13.90
2023-05-08T21:07:30.560Z,13.88
2023-05-08T21:08:30.546Z,13.85
2023-05-08T21:09:30.613Z,13.81
2023-05-08T21:10:30.529Z,13.78
2023-05-08T21:11:30.529Z,13.75
2023-05-08T21:12:30.539Z,13.73
2023-05-08T21:13:30.500Z,13.71
2023-05-08T21:14:30.485Z,13.70
2023-05-08T21:15:30.515Z,13.69
2023-05-08T21:16:30.495Z,13.68
2023-05-08T21:17:30.506Z,13.67
2023-05-08T21:18:30.457Z,13.65
2023-05-08T21:19:30.442Z,13.63
2023-05-08T21:20:30.427Z,13.60
2023-05-08T21:21:30.433Z,13.58
2023-05-08T21:22:30.421Z,13.56
2023-05-08T21:23:30.404Z,13.55
2023-05-08T21:24:30.386Z,13.53
2023-05-08T21:25:30.379Z,13.52
2023-05-08T21:26:30.370Z,13.51
2023-05-08T21:27:30.355Z,13.49
2023-05-08T21:28:30.347Z,13.47
2023-05-08T21:29:30.335Z,13.46
2023-05-08T21:30:30.310Z,13.43
2023-05-08T21:31:30.354Z,13.40
2023-05-08T21:32:30.343Z,13.37
2023-05-08T21:33:30.273Z,13.33
2023-05-08T21:34:30.359Z,13.29
2023-05-08T21:35:30.308Z,13.26
2023-05-08T21:36:30.258Z,13.22
2023-05-08T21:37:30.286Z,13.18
2023-05-08T21:38:30.240Z,13.14
2023-05-08T21:39:30.210Z,13.11
2023-05-08T21:40:30.269Z,13.09
2023-05-08T21:41:30.252Z,13.07
2023-05-08T21:42:30.187Z,13.07
2023-05-08T21:43:30.188Z,13.06
2023-05-08T21:44:30.169Z,13.06
2023-05-08T21:45:30.164Z,13.04
2023-05-08T21:46:30.238Z,13.03
2023-05-08T21:47:30.135Z,13.01
2023-05-08T21:48:30.119Z,13.00
2023-05-08T21:49:30.123Z,12.99
2023-05-08T21:50:30.106Z,12.98
2023-05-08T21:51:30.102Z,12.96
2023-05-08T21:52:30.095Z,12.94
2023-05-08T21:53:30.071Z,12.93
2023-05-08T21:54:30.055Z,12.91
2023-05-08T21:55:32.153Z,12.90
2023-05-08T21:56:30.056Z,12.87
2023-05-08T21:57:30.035Z,12.84
2023-05-08T21:58:30.019Z,12.80
2023-05-08T21:59:30.018Z,12.77
2023-05-08T22:00:30.003Z,12.74
2023-05-08T22:01:30.055Z,12.73
2023-05-08T22:02:30.037Z,12.72
2023-05-08T22:03:30.063Z,12.71
2023-05-08T22:04:29.944Z,12.71
2023-05-08T22:05:30.038Z,12.71
2023-05-08T22:06:29.943Z,12.70
2023-05-08T22:07:29.911Z,12.68
2023-05-08T22:08:29.920Z,12.67
2023-05-08T22:09:29.919Z,12.66
2023-05-08T22:10:29.883Z,12.65
2023-05-08T22:11:29.918Z,12.65
2023-05-08T22:12:29.861Z,12.64
2023-05-08T22:13:29.852Z,12.62
2023-05-08T22:14:29.865Z,12.59
2023-05-08T22:15:30.886Z,12.57
2023-05-08T22:16:29.879Z,12.54
2023-05-08T22:17:29.945Z,12.52
2023-05-08T22:18:29.827Z,12.50
2023-05-08T22:19:29.788Z,12.49
2023-05-08T22:20:29.799Z,12.49
2023-05-08T22:21:29.788Z,12.49
2023-05-08T22:22:29.748Z,12.49
2023-05-08T22:23:29.766Z,12.50
2023-05-08T22:24:29.732Z,12.50
2023-05-08T22:25:29.729Z,12.49
2023-05-08T22:26:29.751Z,12.49
2023-05-08T22:27:29.720Z,12.47
2023-05-08T22:28:29.684Z,12.46
2023-05-08T22:29:29.672Z,12.45
2023-05-08T22:30:29.686Z,12.44
2023-05-08T22:31:29.715Z,12.43
2023-05-08T22:32:29.738Z,12.41
2023-05-08T22:33:29.657Z,12.39
2023-05-08T22:34:29.630Z,12.37
2023-05-08T22:35:29.608Z,12.34
2023-05-08T22:36:29.630Z,12.31
2023-05-08T22:37:29.599Z,12.28
2023-05-08T22:38:29.578Z,12.26
2023-05-08T22:39:29.614Z,12.22
2023-05-08T22:40:29.577Z,12.18
2023-05-08T22:41:29.560Z,12.14
2023-05-08T22:42:29.583Z,12.10
2023-05-08T22:43:29.533Z,12.06
2023-05-08T22:44:29.508Z,12.04
2023-05-08T22:45:29.528Z,12.02
2023-05-08T22:46:29.566Z,11.99
2023-05-08T22:47:29.516Z,11.98
2023-05-08T22:48:29.470Z,11.96
2023-05-08T22:49:29.511Z,11.95
2023-05-08T22:50:29.454Z,11.94
2023-05-08T22:51:29.444Z,11.93
2023-05-08T22:52:29.447Z,11.91
2023-05-08T22:53:29.449Z,11.89
2023-05-08T22:54:29.405Z,11.88
2023-05-08T22:55:29.393Z,11.87
2023-05-08T22:56:29.386Z,11.85
2023-05-08T22:57:29.387Z,11.82
2023-05-08T22:58:29.422Z,11.78
2023-05-08T22:59:29.351Z,11.74
2023-05-08T23:00:29.341Z,11.70
2023-05-08T23:01:29.387Z,11.67
2023-05-08T23:02:29.341Z,11.65
2023-05-08T23:03:29.316Z,11.65
2023-05-08T23:04:29.361Z,11.67
2023-05-08T23:05:29.280Z,11.68
2023-05-08T23:06:29.298Z,11.70
2023-05-08T23:07:29.283Z,11.72
2023-05-08T23:08:29.264Z,11.73
2023-05-08T23:09:29.244Z,11.74
2023-05-08T23:10:29.235Z,11.75
2023-05-08T23:11:29.251Z,11.75
2023-05-08T23:12:29.233Z,11.74
2023-05-08T23:13:29.236Z,11.72
2023-05-08T23:14:29.194Z,11.69
2023-05-08T23:15:29.175Z,11.64
2023-05-08T23:16:29.221Z,11.58
2023-05-08T23:17:29.193Z,11.50
2023-05-08T23:18:29.162Z,11.43
2023-05-08T23:19:29.138Z,11.35
2023-05-08T23:20:29.136Z,11.28
2023-05-08T23:21:29.113Z,11.22
2023-05-08T23:22:29.154Z,11.16
2023-05-08T23:23:29.083Z,11.10
2023-05-08T23:24:29.096Z,11.04
2023-05-08T23:25:29.074Z,10.98
2023-05-08T23:26:29.075Z,10.93
2023-05-08T23:27:29.086Z,10.89
2023-05-08T23:28:29.039Z,10.86
2023-05-08T23:29:29.030Z,10.87
2023-05-08T23:30:29.054Z,10.89
2023-05-08T23:31:29.042Z,10.92
2023-05-08T23:32:29.075Z,10.94
2023-05-08T23:33:28.976Z,10.97
2023-05-08T23:34:29.168Z,10.99
2023-05-08T23:35:28.972Z,11.01
2023-05-08T23:36:28.948Z,11.03
2023-05-08T23:37:29.008Z,11.04
2023-05-08T23:38:28.940Z,11.04
2023-05-08T23:39:28.936Z,11.05
2023-05-08T23:40:28.912Z,11.04
2023-05-08T23:41:28.891Z,11.03
2023-05-08T23:42:28.917Z,11.02
2023-05-08T23:43:28.886Z,11.01
2023-05-08T23:44:28.871Z,11.01
2023-05-08T23:45:28.861Z,11.01
2023-05-08T23:46:28.879Z,11.01
2023-05-08T23:47:28.898Z,11.02
2023-05-08T23:48:28.829Z,11.01
2023-05-08T23:49:28.808Z,11.01
2023-05-08T23:50:28.813Z,11.00
2023-05-08T23:51:28.795Z,10.99
2023-05-08T23:52:28.837Z,10.98
2023-05-08T23:53:28.779Z,10.97
2023-05-08T23:54:28.822Z,10.96
2023-05-08T23:55:28.754Z,10.96
2023-05-08T23:56:28.734Z,10.95
2023-05-08T23:57:28.797Z,10.93
2023-05-08T23:58:28.716Z,10.92
2023-05-08T23:59:28.746Z,10.90
